sensor_id;sensor_type;location;lat;lon;timestamp;P1;durP1;ratioP1;P2;durP2;ratioP2
15466;SDS011;7834;49.452;11.056;2022-10-31T00:02:14;20.15;;;12.15;;
15466;SDS011;7834;49.452;11.056;2022-10-31T00:04:40;19.70;;;11.32;;
15466;SDS011;7834;49.452;11.056;2022-10-31T00:07:06;21.90;;;11.75;;
15466;SDS011;7834;49.452;11.056;2022-10-31T00:09:32;16.52;;;11.55;;
15466;SDS011;7834;49.452;11.056;2022-10-31T00:11:58;17.42;;;11.82;;
15466;SDS011;7834;49.452;11.056;2022-10-31T00:14:24;18.80;;;11.82;;
15466;SDS011;7834;49.452;11.056;2022-10-31T00:16:50;25.73;;;12.10;;
15466;SDS011;7834;49.452;11.056;2022-10-31T00:19:16;17.10;;;12.57;;
15466;SDS011;7834;49.452;11.056;2022-10-31T00:21:42;18.05;;;11.25;;
15466;SDS011;7834;49.452;11.056;2022-10-31T00:24:08;19.60;;;11.80;;
15466;SDS011;7834;49.452;11.056;2022-10-31T00:26:34;20.70;;;10.88;;
15466;SDS011;7834;49.452;11.056;2022-10-31T00:29:00;19.95;;;10.98;;
15466;SDS011;7834;49.452;11.056;2022-10-31T00:31:26;16.75;;;11.95;;
15466;SDS011;7834;49.452;11.056;2022-10-31T00:33:52;21.58;;;11.82;;
15466;SDS011;7834;49.452;11.056;2022-10-31T00:36:19;22.00;;;11.85;;
15466;SDS011;7834;49.452;11.056;2022-10-31T00:38:45;19.55;;;11.45;;
15466;SDS011;7834;49.452;11.056;2022-10-31T00:41:12;15.90;;;11.05;;
15466;SDS011;7834;49.452;11.056;2022-10-31T00:43:39;19.95;;;12.25;;
15466;SDS011;7834;49.452;11.056;2022-10-31T00:46:05;20.75;;;11.55;;
15466;SDS011;7834;49.452;11.056;2022-10-31T00:48:31;23.88;;;11.73;;
15466;SDS011;7834;49.452;11.056;2022-10-31T00:50:57;18.50;;;11.60;;
15466;SDS011;7834;49.452;11.056;2022-10-31T00:53:23;19.17;;;11.88;;
15466;SDS011;7834;49.452;11.056;2022-10-31T00:55:49;16.35;;;10.80;;
15466;SDS011;7834;49.452;11.056;2022-10-31T00:58:15;20.17;;;11.63;;
15466;SDS011;7834;49.452;11.056;2022-10-31T01:00:41;18.88;;;10.90;;
15466;SDS011;7834;49.452;11.056;2022-10-31T01:03:07;23.85;;;11.38;;
15466;SDS011;7834;49.452;11.056;2022-10-31T01:05:33;21.95;;;11.07;;
15466;SDS011;7834;49.452;11.056;2022-10-31T01:07:59;17.35;;;10.68;;
15466;SDS011;7834;49.452;11.056;2022-10-31T01:10:25;19.02;;;11.50;;
15466;SDS011;7834;49.452;11.056;2022-10-31T01:12:51;18.52;;;11.23;;
15466;SDS011;7834;49.452;11.056;2022-10-31T01:15:21;18.17;;;11.23;;
15466;SDS011;7834;49.452;11.056;2022-10-31T01:17:47;24.27;;;11.80;;
15466;SDS011;7834;49.452;11.056;2022-10-31T01:20:14;20.08;;;10.88;;
15466;SDS011;7834;49.452;11.056;2022-10-31T01:22:40;17.23;;;11.43;;
15466;SDS011;7834;49.452;11.056;2022-10-31T01:25:07;19.75;;;11.93;;
15466;SDS011;7834;49.452;11.056;2022-10-31T01:27:33;19.85;;;11.73;;
15466;SDS011;7834;49.452;11.056;2022-10-31T01:29:59;20.35;;;12.23;;
15466;SDS011;7834;49.452;11.056;2022-10-31T01:32:26;18.60;;;11.52;;
15466;SDS011;7834;49.452;11.056;2022-10-31T01:34:53;21.55;;;11.00;;
15466;SDS011;7834;49.452;11.056;2022-10-31T01:37:19;17.25;;;11.05;;
15466;SDS011;7834;49.452;11.056;2022-10-31T01:39:47;20.45;;;11.57;;
15466;SDS011;7834;49.452;11.056;2022-10-31T01:42:18;20.80;;;12.27;;
15466;SDS011;7834;49.452;11.056;2022-10-31T01:47:17;19.85;;;12.18;;
15466;SDS011;7834;49.452;11.056;2022-10-31T01:49:53;16.50;;;11.63;;
15466;SDS011;7834;49.452;11.056;2022-10-31T01:52:30;21.20;;;11.48;;
15466;SDS011;7834;49.452;11.056;2022-10-31T01:54:59;19.45;;;11.60;;
15466;SDS011;7834;49.452;11.056;2022-10-31T01:57:26;18.58;;;13.18;;
15466;SDS011;7834;49.452;11.056;2022-10-31T01:59:54;17.42;;;13.48;;
15466;SDS011;7834;49.452;11.056;2022-10-31T02:02:21;19.00;;;13.18;;
15466;SDS011;7834;49.452;11.056;2022-10-31T02:04:47;21.70;;;12.90;;
15466;SDS011;7834;49.452;11.056;2022-10-31T02:07:14;20.02;;;13.65;;
15466;SDS011;7834;49.452;11.056;2022-10-31T02:09:42;22.00;;;13.07;;
15466;SDS011;7834;49.452;11.056;2022-10-31T02:12:08;22.40;;;13.35;;
15466;SDS011;7834;49.452;11.056;2022-10-31T02:14:35;19.70;;;13.25;;
15466;SDS011;7834;49.452;11.056;2022-10-31T02:17:01;21.33;;;13.70;;
15466;SDS011;7834;49.452;11.056;2022-10-31T02:19:31;18.23;;;13.10;;
15466;SDS011;7834;49.452;11.056;2022-10-31T02:22:05;19.88;;;14.25;;
15466;SDS011;7834;49.452;11.056;2022-10-31T02:24:37;18.20;;;13.73;;
15466;SDS011;7834;49.452;11.056;2022-10-31T02:35:16;20.10;;;14.77;;
15466;SDS011;7834;49.452;11.056;2022-10-31T02:37:47;19.35;;;14.32;;
15466;SDS011;7834;49.452;11.056;2022-10-31T02:40:21;21.95;;;14.50;;
15466;SDS011;7834;49.452;11.056;2022-10-31T02:42:50;20.77;;;14.77;;
15466;SDS011;7834;49.452;11.056;2022-10-31T02:47:43;18.02;;;13.80;;
15466;SDS011;7834;49.452;11.056;2022-10-31T02:50:19;17.00;;;13.77;;
15466;SDS011;7834;49.452;11.056;2022-10-31T02:52:49;19.60;;;14.13;;
15466;SDS011;7834;49.452;11.056;2022-10-31T02:57:51;17.13;;;13.52;;
15466;SDS011;7834;49.452;11.056;2022-10-31T03:00:18;18.95;;;14.20;;
15466;SDS011;7834;49.452;11.056;2022-10-31T03:07:57;20.95;;;12.95;;
15466;SDS011;7834;49.452;11.056;2022-10-31T03:15:22;20.15;;;11.75;;
15466;SDS011;7834;49.452;11.056;2022-10-31T03:18:09;19.27;;;12.05;;
15466;SDS011;7834;49.452;11.056;2022-10-31T03:20:40;14.77;;;10.95;;
15466;SDS011;7834;49.452;11.056;2022-10-31T03:23:08;14.90;;;11.95;;
15466;SDS011;7834;49.452;11.056;2022-10-31T03:25:35;18.27;;;12.00;;
15466;SDS011;7834;49.452;11.056;2022-10-31T03:28:02;17.15;;;11.88;;
15466;SDS011;7834;49.452;11.056;2022-10-31T03:30:29;19.13;;;12.75;;
15466;SDS011;7834;49.452;11.056;2022-10-31T03:32:59;20.30;;;11.88;;
15466;SDS011;7834;49.452;11.056;2022-10-31T03:35:27;21.38;;;11.93;;
15466;SDS011;7834;49.452;11.056;2022-10-31T03:37:54;15.13;;;10.52;;
15466;SDS011;7834;49.452;11.056;2022-10-31T03:40:21;15.55;;;11.57;;
15466;SDS011;7834;49.452;11.056;2022-10-31T03:42:53;17.48;;;11.52;;
15466;SDS011;7834;49.452;11.056;2022-10-31T03:45:24;17.73;;;11.63;;
15466;SDS011;7834;49.452;11.056;2022-10-31T03:47:52;16.33;;;11.02;;
15466;SDS011;7834;49.452;11.056;2022-10-31T03:50:19;17.75;;;11.48;;
15466;SDS011;7834;49.452;11.056;2022-10-31T03:52:49;17.15;;;10.77;;
15466;SDS011;7834;49.452;11.056;2022-10-31T03:58:03;14.85;;;9.32;;
15466;SDS011;7834;49.452;11.056;2022-10-31T04:00:32;14.75;;;9.50;;
15466;SDS011;7834;49.452;11.056;2022-10-31T04:03:06;15.25;;;9.00;;
15466;SDS011;7834;49.452;11.056;2022-10-31T04:05:33;15.68;;;9.13;;
15466;SDS011;7834;49.452;11.056;2022-10-31T04:08:00;16.65;;;9.18;;
15466;SDS011;7834;49.452;11.056;2022-10-31T04:10:27;15.90;;;9.70;;
15466;SDS011;7834;49.452;11.056;2022-10-31T04:12:58;19.30;;;9.63;;
15466;SDS011;7834;49.452;11.056;2022-10-31T04:15:25;16.63;;;9.90;;
15466;SDS011;7834;49.452;11.056;2022-10-31T04:17:53;16.50;;;9.85;;
15466;SDS011;7834;49.452;11.056;2022-10-31T04:20:37;18.85;;;10.23;;
15466;SDS011;7834;49.452;11.056;2022-10-31T04:23:04;17.08;;;10.00;;
15466;SDS011;7834;49.452;11.056;2022-10-31T04:25:30;15.65;;;10.02;;
15466;SDS011;7834;49.452;11.056;2022-10-31T04:27:56;20.10;;;10.20;;
15466;SDS011;7834;49.452;11.056;2022-10-31T04:30:22;17.52;;;9.65;;
15466;SDS011;7834;49.452;11.056;2022-10-31T04:32:48;19.60;;;10.32;;
15466;SDS011;7834;49.452;11.056;2022-10-31T04:35:14;17.27;;;10.15;;
15466;SDS011;7834;49.452;11.056;2022-10-31T04:37:41;18.45;;;11.30;;
15466;SDS011;7834;49.452;11.056;2022-10-31T04:40:07;19.60;;;11.77;;
15466;SDS011;7834;49.452;11.056;2022-10-31T04:42:33;18.48;;;10.93;;
15466;SDS011;7834;49.452;11.056;2022-10-31T04:44:59;17.25;;;10.48;;
15466;SDS011;7834;49.452;11.056;2022-10-31T04:47:25;17.98;;;10.68;;
15466;SDS011;7834;49.452;11.056;2022-10-31T04:49:51;18.95;;;11.57;;
15466;SDS011;7834;49.452;11.056;2022-10-31T04:52:17;21.70;;;12.30;;
15466;SDS011;7834;49.452;11.056;2022-10-31T04:54:43;17.35;;;11.70;;
15466;SDS011;7834;49.452;11.056;2022-10-31T04:57:09;18.15;;;11.35;;
15466;SDS011;7834;49.452;11.056;2022-10-31T04:59:35;18.63;;;10.93;;
15466;SDS011;7834;49.452;11.056;2022-10-31T05:02:01;16.63;;;10.27;;
15466;SDS011;7834;49.452;11.056;2022-10-31T05:04:27;15.00;;;10.52;;
15466;SDS011;7834;49.452;11.056;2022-10-31T05:06:53;20.15;;;10.82;;
15466;SDS011;7834;49.452;11.056;2022-10-31T05:09:19;13.10;;;10.25;;
15466;SDS011;7834;49.452;11.056;2022-10-31T05:11:44;16.42;;;9.48;;
15466;SDS011;7834;49.452;11.056;2022-10-31T05:14:10;14.45;;;9.77;;
15466;SDS011;7834;49.452;11.056;2022-10-31T05:16:36;15.73;;;10.98;;
15466;SDS011;7834;49.452;11.056;2022-10-31T05:19:02;14.48;;;10.32;;
15466;SDS011;7834;49.452;11.056;2022-10-31T05:21:28;17.35;;;9.75;;
15466;SDS011;7834;49.452;11.056;2022-10-31T05:23:54;15.38;;;8.95;;
15466;SDS011;7834;49.452;11.056;2022-10-31T05:26:20;18.42;;;9.88;;
15466;SDS011;7834;49.452;11.056;2022-10-31T05:28:46;19.45;;;10.05;;
15466;SDS011;7834;49.452;11.056;2022-10-31T05:31:12;16.95;;;9.57;;
15466;SDS011;7834;49.452;11.056;2022-10-31T05:33:38;17.73;;;9.52;;
15466;SDS011;7834;49.452;11.056;2022-10-31T05:36:04;15.30;;;9.38;;
15466;SDS011;7834;49.452;11.056;2022-10-31T05:38:30;17.65;;;9.43;;
15466;SDS011;7834;49.452;11.056;2022-10-31T05:40:56;15.32;;;8.80;;
15466;SDS011;7834;49.452;11.056;2022-10-31T05:43:24;13.15;;;8.32;;
15466;SDS011;7834;49.452;11.056;2022-10-31T05:45:54;13.20;;;8.45;;
15466;SDS011;7834;49.452;11.056;2022-10-31T05:48:20;14.70;;;8.75;;
15466;SDS011;7834;49.452;11.056;2022-10-31T05:50:47;13.02;;;8.48;;
15466;SDS011;7834;49.452;11.056;2022-10-31T05:53:13;16.20;;;8.98;;
15466;SDS011;7834;49.452;11.056;2022-10-31T05:55:39;16.60;;;8.93;;
15466;SDS011;7834;49.452;11.056;2022-10-31T05:58:08;14.77;;;9.00;;
15466;SDS011;7834;49.452;11.056;2022-10-31T06:00:34;17.80;;;8.85;;
15466;SDS011;7834;49.452;11.056;2022-10-31T06:03:01;13.85;;;9.10;;
15466;SDS011;7834;49.452;11.056;2022-10-31T06:05:28;15.23;;;9.02;;
15466;SDS011;7834;49.452;11.056;2022-10-31T06:07:54;20.10;;;9.25;;
15466;SDS011;7834;49.452;11.056;2022-10-31T06:10:20;11.77;;;8.65;;
15466;SDS011;7834;49.452;11.056;2022-10-31T06:12:46;15.55;;;8.77;;
15466;SDS011;7834;49.452;11.056;2022-10-31T06:15:12;13.07;;;8.73;;
15466;SDS011;7834;49.452;11.056;2022-10-31T06:17:38;16.33;;;9.82;;
15466;SDS011;7834;49.452;11.056;2022-10-31T06:20:05;18.23;;;10.35;;
15466;SDS011;7834;49.452;11.056;2022-10-31T06:22:31;20.85;;;10.07;;
15466;SDS011;7834;49.452;11.056;2022-10-31T06:24:57;14.93;;;10.13;;
15466;SDS011;7834;49.452;11.056;2022-10-31T06:27:23;16.42;;;9.57;;
15466;SDS011;7834;49.452;11.056;2022-10-31T06:29:50;22.23;;;10.32;;
15466;SDS011;7834;49.452;11.056;2022-10-31T06:32:16;12.65;;;9.60;;
15466;SDS011;7834;49.452;11.056;2022-10-31T06:34:42;14.52;;;9.25;;
15466;SDS011;7834;49.452;11.056;2022-10-31T06:37:09;15.65;;;8.95;;
15466;SDS011;7834;49.452;11.056;2022-10-31T06:39:36;15.43;;;9.65;;
15466;SDS011;7834;49.452;11.056;2022-10-31T06:42:02;14.50;;;9.43;;
15466;SDS011;7834;49.452;11.056;2022-10-31T06:44:28;15.02;;;9.38;;
15466;SDS011;7834;49.452;11.056;2022-10-31T06:46:54;16.27;;;9.45;;
15466;SDS011;7834;49.452;11.056;2022-10-31T06:49:20;12.70;;;8.15;;
15466;SDS011;7834;49.452;11.056;2022-10-31T06:51:47;15.30;;;8.88;;
15466;SDS011;7834;49.452;11.056;2022-10-31T06:54:13;12.40;;;8.50;;
15466;SDS011;7834;49.452;11.056;2022-10-31T06:56:39;14.07;;;8.57;;
15466;SDS011;7834;49.452;11.056;2022-10-31T06:59:05;11.77;;;8.27;;
15466;SDS011;7834;49.452;11.056;2022-10-31T07:01:31;13.48;;;8.10;;
15466;SDS011;7834;49.452;11.056;2022-10-31T07:03:58;20.38;;;8.60;;
15466;SDS011;7834;49.452;11.056;2022-10-31T07:06:24;15.25;;;9.00;;
15466;SDS011;7834;49.452;11.056;2022-10-31T07:08:50;14.85;;;8.98;;
15466;SDS011;7834;49.452;11.056;2022-10-31T07:11:16;13.77;;;8.82;;
15466;SDS011;7834;49.452;11.056;2022-10-31T07:13:42;18.55;;;8.82;;
15466;SDS011;7834;49.452;11.056;2022-10-31T07:16:08;12.75;;;8.43;;
15466;SDS011;7834;49.452;11.056;2022-10-31T07:18:37;15.30;;;9.10;;
15466;SDS011;7834;49.452;11.056;2022-10-31T07:21:03;13.90;;;9.45;;
15466;SDS011;7834;49.452;11.056;2022-10-31T07:23:29;16.08;;;9.50;;
15466;SDS011;7834;49.452;11.056;2022-10-31T07:25:55;14.63;;;9.43;;
15466;SDS011;7834;49.452;11.056;2022-10-31T07:28:22;19.13;;;10.27;;
15466;SDS011;7834;49.452;11.056;2022-10-31T07:30:51;17.30;;;10.10;;
15466;SDS011;7834;49.452;11.056;2022-10-31T07:33:17;21.40;;;9.80;;
15466;SDS011;7834;49.452;11.056;2022-10-31T07:35:44;15.27;;;10.10;;
15466;SDS011;7834;49.452;11.056;2022-10-31T07:38:10;14.85;;;9.93;;
15466;SDS011;7834;49.452;11.056;2022-10-31T07:40:37;15.60;;;9.98;;
15466;SDS011;7834;49.452;11.056;2022-10-31T07:43:03;14.77;;;9.23;;
15466;SDS011;7834;49.452;11.056;2022-10-31T07:45:29;15.88;;;9.93;;
15466;SDS011;7834;49.452;11.056;2022-10-31T07:47:55;16.88;;;9.18;;
15466;SDS011;7834;49.452;11.056;2022-10-31T07:50:25;19.02;;;9.75;;
15466;SDS011;7834;49.452;11.056;2022-10-31T07:52:58;16.17;;;9.93;;
15466;SDS011;7834;49.452;11.056;2022-10-31T07:55:24;17.52;;;10.27;;
15466;SDS011;7834;49.452;11.056;2022-10-31T07:57:57;16.42;;;10.23;;
15466;SDS011;7834;49.452;11.056;2022-10-31T08:00:23;14.63;;;9.65;;
15466;SDS011;7834;49.452;11.056;2022-10-31T08:02:56;13.98;;;9.88;;
15466;SDS011;7834;49.452;11.056;2022-10-31T08:05:22;15.50;;;9.57;;
15466;SDS011;7834;49.452;11.056;2022-10-31T08:07:48;15.05;;;9.88;;
15466;SDS011;7834;49.452;11.056;2022-10-31T08:10:14;16.77;;;9.70;;
15466;SDS011;7834;49.452;11.056;2022-10-31T08:12:40;15.90;;;10.45;;
15466;SDS011;7834;49.452;11.056;2022-10-31T08:15:06;18.80;;;12.30;;
15466;SDS011;7834;49.452;11.056;2022-10-31T08:17:34;15.63;;;10.25;;
15466;SDS011;7834;49.452;11.056;2022-10-31T08:20:00;15.70;;;10.38;;
15466;SDS011;7834;49.452;11.056;2022-10-31T08:22:26;17.35;;;10.98;;
15466;SDS011;7834;49.452;11.056;2022-10-31T08:24:52;15.25;;;10.43;;
15466;SDS011;7834;49.452;11.056;2022-10-31T08:27:18;16.65;;;11.05;;
15466;SDS011;7834;49.452;11.056;2022-10-31T08:29:44;15.77;;;10.13;;
15466;SDS011;7834;49.452;11.056;2022-10-31T08:32:10;16.42;;;10.80;;
15466;SDS011;7834;49.452;11.056;2022-10-31T08:34:36;16.20;;;10.15;;
15466;SDS011;7834;49.452;11.056;2022-10-31T08:37:02;17.38;;;11.50;;
15466;SDS011;7834;49.452;11.056;2022-10-31T08:39:28;20.02;;;10.77;;
15466;SDS011;7834;49.452;11.056;2022-10-31T08:41:54;16.48;;;10.65;;
15466;SDS011;7834;49.452;11.056;2022-10-31T08:44:20;17.30;;;10.75;;
15466;SDS011;7834;49.452;11.056;2022-10-31T08:46:46;20.95;;;10.30;;
15466;SDS011;7834;49.452;11.056;2022-10-31T08:49:12;17.55;;;11.50;;
15466;SDS011;7834;49.452;11.056;2022-10-31T08:51:38;17.20;;;10.38;;
15466;SDS011;7834;49.452;11.056;2022-10-31T08:54:04;12.65;;;10.35;;
15466;SDS011;7834;49.452;11.056;2022-10-31T08:56:30;19.23;;;11.30;;
15466;SDS011;7834;49.452;11.056;2022-10-31T08:58:58;14.90;;;11.27;;
15466;SDS011;7834;49.452;11.056;2022-10-31T09:01:24;14.90;;;10.85;;
15466;SDS011;7834;49.452;11.056;2022-10-31T09:03:50;18.02;;;11.20;;
15466;SDS011;7834;49.452;11.056;2022-10-31T09:06:16;20.17;;;11.75;;
15466;SDS011;7834;49.452;11.056;2022-10-31T09:08:42;20.58;;;11.05;;
15466;SDS011;7834;49.452;11.056;2022-10-31T09:11:08;17.55;;;11.02;;
15466;SDS011;7834;49.452;11.056;2022-10-31T09:13:33;21.92;;;12.07;;
15466;SDS011;7834;49.452;11.056;2022-10-31T09:15:59;16.88;;;11.23;;
15466;SDS011;7834;49.452;11.056;2022-10-31T09:18:25;17.70;;;11.63;;
15466;SDS011;7834;49.452;11.056;2022-10-31T09:20:53;27.08;;;12.43;;
15466;SDS011;7834;49.452;11.056;2022-10-31T09:23:20;20.85;;;13.00;;
15466;SDS011;7834;49.452;11.056;2022-10-31T09:25:46;20.73;;;12.20;;
15466;SDS011;7834;49.452;11.056;2022-10-31T09:28:14;15.63;;;11.05;;
15466;SDS011;7834;49.452;11.056;2022-10-31T09:30:40;20.85;;;11.88;;
15466;SDS011;7834;49.452;11.056;2022-10-31T09:33:09;17.75;;;11.98;;
15466;SDS011;7834;49.452;11.056;2022-10-31T09:35:35;15.55;;;11.50;;
15466;SDS011;7834;49.452;11.056;2022-10-31T09:38:02;18.55;;;12.18;;
15466;SDS011;7834;49.452;11.056;2022-10-31T09:40:35;14.75;;;11.77;;
15466;SDS011;7834;49.452;11.056;2022-10-31T09:45:35;18.60;;;12.02;;
15466;SDS011;7834;49.452;11.056;2022-10-31T09:50:44;20.92;;;11.60;;
15466;SDS011;7834;49.452;11.056;2022-10-31T09:55:41;18.98;;;10.95;;
15466;SDS011;7834;49.452;11.056;2022-10-31T09:58:13;15.50;;;11.90;;
15466;SDS011;7834;49.452;11.056;2022-10-31T10:00:40;17.33;;;11.50;;
15466;SDS011;7834;49.452;11.056;2022-10-31T10:03:29;21.80;;;10.93;;
15466;SDS011;7834;49.452;11.056;2022-10-31T10:06:13;15.85;;;11.65;;
15466;SDS011;7834;49.452;11.056;2022-10-31T10:08:40;15.30;;;11.18;;
15466;SDS011;7834;49.452;11.056;2022-10-31T10:11:18;15.10;;;11.50;;
15466;SDS011;7834;49.452;11.056;2022-10-31T10:16:55;17.77;;;10.35;;
15466;SDS011;7834;49.452;11.056;2022-10-31T10:29:50;16.33;;;10.77;;
15466;SDS011;7834;49.452;11.056;2022-10-31T10:32:20;16.80;;;11.30;;
15466;SDS011;7834;49.452;11.056;2022-10-31T10:34:50;15.65;;;11.75;;
15466;SDS011;7834;49.452;11.056;2022-10-31T10:39:46;14.90;;;10.77;;
15466;SDS011;7834;49.452;11.056;2022-10-31T10:42:15;20.10;;;10.68;;
15466;SDS011;7834;49.452;11.056;2022-10-31T10:45:06;15.65;;;11.13;;
15466;SDS011;7834;49.452;11.056;2022-10-31T10:47:59;18.77;;;11.25;;
15466;SDS011;7834;49.452;11.056;2022-10-31T10:50:27;18.45;;;10.50;;
15466;SDS011;7834;49.452;11.056;2022-10-31T10:53:07;12.63;;;9.60;;
15466;SDS011;7834;49.452;11.056;2022-10-31T10:55:43;17.63;;;9.98;;
15466;SDS011;7834;49.452;11.056;2022-10-31T10:58:13;18.23;;;10.25;;
15466;SDS011;7834;49.452;11.056;2022-10-31T11:00:40;18.67;;;10.40;;
15466;SDS011;7834;49.452;11.056;2022-10-31T11:03:07;20.35;;;9.63;;
15466;SDS011;7834;49.452;11.056;2022-10-31T11:05:41;22.23;;;12.25;;
15466;SDS011;7834;49.452;11.056;2022-10-31T11:08:09;18.40;;;10.95;;
15466;SDS011;7834;49.452;11.056;2022-10-31T11:10:36;18.98;;;10.65;;
15466;SDS011;7834;49.452;11.056;2022-10-31T11:15:33;15.18;;;9.73;;
15466;SDS011;7834;49.452;11.056;2022-10-31T11:18:00;14.55;;;10.05;;
15466;SDS011;7834;49.452;11.056;2022-10-31T11:20:28;16.95;;;10.63;;
15466;SDS011;7834;49.452;11.056;2022-10-31T11:23:39;18.15;;;10.57;;
15466;SDS011;7834;49.452;11.056;2022-10-31T11:25:50;16.85;;;10.90;;
15466;SDS011;7834;49.452;11.056;2022-10-31T11:28:16;17.90;;;10.48;;
15466;SDS011;7834;49.452;11.056;2022-10-31T11:30:43;22.52;;;12.23;;
15466;SDS011;7834;49.452;11.056;2022-10-31T11:33:17;20.40;;;10.18;;
15466;SDS011;7834;49.452;11.056;2022-10-31T11:35:43;19.08;;;10.57;;
15466;SDS011;7834;49.452;11.056;2022-10-31T11:38:12;15.23;;;10.45;;
15466;SDS011;7834;49.452;11.056;2022-10-31T11:40:39;17.77;;;10.43;;
15466;SDS011;7834;49.452;11.056;2022-10-31T11:43:16;17.60;;;10.23;;
15466;SDS011;7834;49.452;11.056;2022-10-31T11:45:43;16.00;;;10.70;;
15466;SDS011;7834;49.452;11.056;2022-10-31T11:48:16;14.10;;;9.38;;
15466;SDS011;7834;49.452;11.056;2022-10-31T11:50:42;14.05;;;10.35;;
15466;SDS011;7834;49.452;11.056;2022-10-31T11:53:17;15.50;;;10.48;;
15466;SDS011;7834;49.452;11.056;2022-10-31T11:55:44;17.65;;;10.10;;
15466;SDS011;7834;49.452;11.056;2022-10-31T11:58:26;14.27;;;10.20;;
15466;SDS011;7834;49.452;11.056;2022-10-31T12:00:53;21.15;;;9.65;;
15466;SDS011;7834;49.452;11.056;2022-10-31T12:08:36;19.13;;;9.68;;
15466;SDS011;7834;49.452;11.056;2022-10-31T12:11:23;15.10;;;9.27;;
15466;SDS011;7834;49.452;11.056;2022-10-31T12:14:03;12.43;;;8.98;;
15466;SDS011;7834;49.452;11.056;2022-10-31T12:22:02;15.38;;;9.77;;
15466;SDS011;7834;49.452;11.056;2022-10-31T12:24:35;13.85;;;8.50;;
15466;SDS011;7834;49.452;11.056;2022-10-31T12:38:10;13.25;;;7.97;;
15466;SDS011;7834;49.452;11.056;2022-10-31T12:56:00;10.32;;;7.95;;
15466;SDS011;7834;49.452;11.056;2022-10-31T12:58:30;12.18;;;7.75;;
15466;SDS011;7834;49.452;11.056;2022-10-31T13:01:03;14.93;;;9.18;;
15466;SDS011;7834;49.452;11.056;2022-10-31T13:03:33;10.55;;;8.35;;
15466;SDS011;7834;49.452;11.056;2022-10-31T13:06:03;14.45;;;8.82;;
15466;SDS011;7834;49.452;11.056;2022-10-31T13:08:42;13.80;;;8.40;;
15466;SDS011;7834;49.452;11.056;2022-10-31T13:13:47;13.70;;;8.55;;
15466;SDS011;7834;49.452;11.056;2022-10-31T13:16:17;14.27;;;8.65;;
15466;SDS011;7834;49.452;11.056;2022-10-31T13:21:22;15.88;;;9.32;;
15466;SDS011;7834;49.452;11.056;2022-10-31T13:23:49;12.38;;;8.43;;
15466;SDS011;7834;49.452;11.056;2022-10-31T13:28:50;15.98;;;9.23;;
15466;SDS011;7834;49.452;11.056;2022-10-31T13:31:18;11.07;;;8.50;;
15466;SDS011;7834;49.452;11.056;2022-10-31T13:33:45;14.85;;;8.43;;
15466;SDS011;7834;49.452;11.056;2022-10-31T13:46:25;12.90;;;9.38;;
15466;SDS011;7834;49.452;11.056;2022-10-31T13:48:51;13.25;;;9.15;;
15466;SDS011;7834;49.452;11.056;2022-10-31T13:51:27;13.50;;;9.20;;
15466;SDS011;7834;49.452;11.056;2022-10-31T13:56:29;16.65;;;9.70;;
15466;SDS011;7834;49.452;11.056;2022-10-31T14:02:01;19.00;;;10.57;;
15466;SDS011;7834;49.452;11.056;2022-10-31T14:04:32;14.20;;;9.60;;
15466;SDS011;7834;49.452;11.056;2022-10-31T14:07:05;15.70;;;9.65;;
15466;SDS011;7834;49.452;11.056;2022-10-31T14:11:59;13.98;;;10.40;;
15466;SDS011;7834;49.452;11.056;2022-10-31T14:14:29;16.77;;;9.63;;
15466;SDS011;7834;49.452;11.056;2022-10-31T14:16:56;12.77;;;9.85;;
15466;SDS011;7834;49.452;11.056;2022-10-31T14:19:23;13.23;;;9.63;;
15466;SDS011;7834;49.452;11.056;2022-10-31T14:21:50;16.40;;;10.35;;
15466;SDS011;7834;49.452;11.056;2022-10-31T14:26:52;16.98;;;10.63;;
15466;SDS011;7834;49.452;11.056;2022-10-31T14:29:21;18.42;;;10.20;;
15466;SDS011;7834;49.452;11.056;2022-10-31T14:31:54;18.00;;;9.77;;
15466;SDS011;7834;49.452;11.056;2022-10-31T14:39:24;15.93;;;10.85;;
15466;SDS011;7834;49.452;11.056;2022-10-31T14:41:55;17.17;;;11.63;;
15466;SDS011;7834;49.452;11.056;2022-10-31T14:44:45;15.70;;;11.25;;
15466;SDS011;7834;49.452;11.056;2022-10-31T14:47:28;17.45;;;11.30;;
15466;SDS011;7834;49.452;11.056;2022-10-31T14:52:36;17.20;;;11.23;;
15466;SDS011;7834;49.452;11.056;2022-10-31T14:55:05;16.63;;;10.70;;
15466;SDS011;7834;49.452;11.056;2022-10-31T14:57:33;16.25;;;10.90;;
15466;SDS011;7834;49.452;11.056;2022-10-31T15:00:04;13.75;;;10.38;;
15466;SDS011;7834;49.452;11.056;2022-10-31T15:05:12;18.50;;;11.52;;
15466;SDS011;7834;49.452;11.056;2022-10-31T15:07:55;14.80;;;11.40;;
15466;SDS011;7834;49.452;11.056;2022-10-31T15:12:47;14.50;;;10.85;;
15466;SDS011;7834;49.452;11.056;2022-10-31T15:15:14;19.67;;;12.02;;
15466;SDS011;7834;49.452;11.056;2022-10-31T15:17:43;18.67;;;10.82;;
15466;SDS011;7834;49.452;11.056;2022-10-31T15:20:12;19.02;;;11.27;;
15466;SDS011;7834;49.452;11.056;2022-10-31T15:22:42;16.63;;;11.30;;
15466;SDS011;7834;49.452;11.056;2022-10-31T15:25:14;18.60;;;11.27;;
15466;SDS011;7834;49.452;11.056;2022-10-31T15:27:42;18.20;;;11.20;;
15466;SDS011;7834;49.452;11.056;2022-10-31T15:30:18;17.50;;;11.52;;
15466;SDS011;7834;49.452;11.056;2022-10-31T15:32:45;19.50;;;12.02;;
15466;SDS011;7834;49.452;11.056;2022-10-31T15:35:15;17.92;;;12.27;;
15466;SDS011;7834;49.452;11.056;2022-10-31T15:37:45;15.20;;;10.95;;
15466;SDS011;7834;49.452;11.056;2022-10-31T15:40:15;22.63;;;12.20;;
15466;SDS011;7834;49.452;11.056;2022-10-31T15:42:41;15.93;;;12.57;;
15466;SDS011;7834;49.452;11.056;2022-10-31T15:47:34;19.15;;;13.02;;
15466;SDS011;7834;49.452;11.056;2022-10-31T15:50:01;21.10;;;12.68;;
15466;SDS011;7834;49.452;11.056;2022-10-31T15:52:32;18.88;;;12.98;;
15466;SDS011;7834;49.452;11.056;2022-10-31T15:55:00;18.02;;;13.27;;
15466;SDS011;7834;49.452;11.056;2022-10-31T15:57:27;17.08;;;13.00;;
15466;SDS011;7834;49.452;11.056;2022-10-31T15:59:54;20.02;;;13.35;;
15466;SDS011;7834;49.452;11.056;2022-10-31T16:02:23;24.40;;;12.98;;
15466;SDS011;7834;49.452;11.056;2022-10-31T16:04:54;21.70;;;12.80;;
15466;SDS011;7834;49.452;11.056;2022-10-31T16:07:21;21.88;;;13.90;;
15466;SDS011;7834;49.452;11.056;2022-10-31T16:09:51;30.52;;;18.52;;
15466;SDS011;7834;49.452;11.056;2022-10-31T16:12:18;21.50;;;13.60;;
15466;SDS011;7834;49.452;11.056;2022-10-31T16:14:44;29.13;;;19.83;;
15466;SDS011;7834;49.452;11.056;2022-10-31T16:17:11;58.97;;;38.75;;
15466;SDS011;7834;49.452;11.056;2022-10-31T16:19:44;88.95;;;58.65;;
15466;SDS011;7834;49.452;11.056;2022-10-31T16:22:14;63.65;;;38.83;;
15466;SDS011;7834;49.452;11.056;2022-10-31T16:24:46;35.38;;;20.98;;
15466;SDS011;7834;49.452;11.056;2022-10-31T16:27:17;30.02;;;19.42;;
15466;SDS011;7834;49.452;11.056;2022-10-31T16:29:44;24.77;;;18.20;;
15466;SDS011;7834;49.452;11.056;2022-10-31T16:37:33;25.70;;;15.95;;
15466;SDS011;7834;49.452;11.056;2022-10-31T16:39:59;20.52;;;14.80;;
15466;SDS011;7834;49.452;11.056;2022-10-31T16:42:25;21.17;;;16.83;;
15466;SDS011;7834;49.452;11.056;2022-10-31T16:44:52;32.60;;;17.63;;
15466;SDS011;7834;49.452;11.056;2022-10-31T16:47:18;26.02;;;18.33;;
15466;SDS011;7834;49.452;11.056;2022-10-31T16:49:46;94.43;;;60.70;;
15466;SDS011;7834;49.452;11.056;2022-10-31T16:52:12;27.92;;;18.75;;
15466;SDS011;7834;49.452;11.056;2022-10-31T16:54:38;24.73;;;17.38;;